sensor_id;sensor_type;location;lat;lon;timestamp;pressure;altitude;pressure_sealevel;temperature;humidity
67803;BME280;54601;51.378;-1.342;2023-08-08T00:02:14;100427.02;;;22.12;35.42
67803;BME280;54601;51.378;-1.342;2023-08-08T00:04:39;100426.97;;;22.25;35.10
67803;BME280;54601;51.378;-1.342;2023-08-08T00:07:05;100423.19;;;22.34;34.84
67803;BME280;54601;51.378;-1.342;2023-08-08T00:09:30;100418.90;;;22.30;34.72
67803;BME280;54601;51.378;-1.342;2023-08-08T00:11:55;100415.37;;;22.41;34.89
67803;BME280;54601;51.378;-1.342;2023-08-08T00:14:21;100414.69;;;22.68;34.82
67803;BME280;54601;51.378;-1.342;2023-08-08T00:16:46;100417.05;;;22.25;35.03
67803;BME280;54601;51.378;-1.342;2023-08-08T00:19:11;100415.83;;;22.10;35.31
67803;BME280;54601;51.378;-1.342;2023-08-08T00:21:37;100417.17;;;22.26;34.88
67803;BME280;54601;51.378;-1.342;2023-08-08T00:24:02;100416.13;;;22.11;35.14
67803;BME280;54601;51.378;-1.342;2023-08-08T00:26:28;100418.21;;;22.01;35.18
67803;BME280;54601;51.378;-1.342;2023-08-08T00:28:53;100416.83;;;21.96;35.25
67803;BME280;54601;51.378;-1.342;2023-08-08T00:31:19;100417.59;;;22.04;35.24
67803;BME280;54601;51.378;-1.342;2023-08-08T00:33:44;100417.50;;;21.98;35.21
67803;BME280;54601;51.378;-1.342;2023-08-08T00:36:09;100415.40;;;21.99;35.17
67803;BME280;54601;51.378;-1.342;2023-08-08T00:38:34;100417.72;;;22.05;35.27
67803;BME280;54601;51.378;-1.342;2023-08-08T00:41:00;100416.55;;;22.24;34.90
67803;BME280;54601;51.378;-1.342;2023-08-08T00:43:25;100413.01;;;21.96;35.23
67803;BME280;54601;51.378;-1.342;2023-08-08T00:45:51;100410.30;;;22.32;35.14
67803;BME280;54601;51.378;-1.342;2023-08-08T00:48:16;100405.80;;;22.00;35.05
67803;BME280;54601;51.378;-1.342;2023-08-08T00:50:43;100400.39;;;22.31;34.63
67803;BME280;54601;51.378;-1.342;2023-08-08T00:53:07;100399.66;;;21.96;35.30
67803;BME280;54601;51.378;-1.342;2023-08-08T00:55:32;100396.70;;;21.93;35.12
67803;BME280;54601;51.378;-1.342;2023-08-08T00:57:58;100396.36;;;21.87;35.22
67803;BME280;54601;51.378;-1.342;2023-08-08T01:00:23;100388.10;;;22.12;34.80
67803;BME280;54601;51.378;-1.342;2023-08-08T01:02:49;100383.81;;;21.91;35.17
67803;BME280;54601;51.378;-1.342;2023-08-08T01:05:14;100373.54;;;22.07;34.80
67803;BME280;54601;51.378;-1.342;2023-08-08T01:07:47;100374.00;;;22.16;34.83
67803;BME280;54601;51.378;-1.342;2023-08-08T01:10:07;100368.34;;;22.07;34.97
67803;BME280;54601;51.378;-1.342;2023-08-08T01:12:31;100368.77;;;22.32;35.00
67803;BME280;54601;51.378;-1.342;2023-08-08T01:14:56;100367.35;;;22.05;34.87
67803;BME280;54601;51.378;-1.342;2023-08-08T01:17:22;100367.16;;;22.60;34.88
67803;BME280;54601;51.378;-1.342;2023-08-08T01:19:46;100360.96;;;22.00;34.99
67803;BME280;54601;51.378;-1.342;2023-08-08T01:22:18;100356.02;;;22.15;35.11
67803;BME280;54601;51.378;-1.342;2023-08-08T01:24:37;100357.55;;;21.99;34.95
67803;BME280;54601;51.378;-1.342;2023-08-08T01:27:04;100352.13;;;21.96;34.91
67803;BME280;54601;51.378;-1.342;2023-08-08T01:29:28;100349.25;;;21.79;34.99
67803;BME280;54601;51.378;-1.342;2023-08-08T01:31:54;100349.93;;;21.91;35.01
67803;BME280;54601;51.378;-1.342;2023-08-08T01:34:19;100345.53;;;21.99;34.86
67803;BME280;54601;51.378;-1.342;2023-08-08T01:36:49;100347.07;;;22.22;34.50
67803;BME280;54601;51.378;-1.342;2023-08-08T01:39:14;100355.60;;;22.42;34.53
67803;BME280;54601;51.378;-1.342;2023-08-08T01:41:36;100361.50;;;22.16;34.74
67803;BME280;54601;51.378;-1.342;2023-08-08T01:44:01;100361.48;;;22.25;34.75
67803;BME280;54601;51.378;-1.342;2023-08-08T01:46:26;100358.07;;;21.97;34.83
67803;BME280;54601;51.378;-1.342;2023-08-08T01:48:51;100356.43;;;22.04;34.86
67803;BME280;54601;51.378;-1.342;2023-08-08T01:51:17;100354.96;;;22.07;34.63
67803;BME280;54601;51.378;-1.342;2023-08-08T01:53:42;100356.50;;;22.04;34.91
67803;BME280;54601;51.378;-1.342;2023-08-08T01:56:07;100360.84;;;22.03;34.72
67803;BME280;54601;51.378;-1.342;2023-08-08T01:58:33;100360.34;;;22.17;34.71
67803;BME280;54601;51.378;-1.342;2023-08-08T02:00:58;100359.69;;;22.10;34.70
67803;BME280;54601;51.378;-1.342;2023-08-08T02:03:24;100356.16;;;22.09;34.72
67803;BME280;54601;51.378;-1.342;2023-08-08T02:05:49;100353.08;;;21.94;34.93
67803;BME280;54601;51.378;-1.342;2023-08-08T02:08:15;100349.94;;;21.95;34.86
67803;BME280;54601;51.378;-1.342;2023-08-08T02:10:40;100342.20;;;22.07;34.57
67803;BME280;54601;51.378;-1.342;2023-08-08T02:13:05;100336.22;;;22.24;34.81
67803;BME280;54601;51.378;-1.342;2023-08-08T02:15:31;100336.75;;;22.21;34.37
67803;BME280;54601;51.378;-1.342;2023-08-08T02:17:56;100330.90;;;22.25;34.38
67803;BME280;54601;51.378;-1.342;2023-08-08T02:20:22;100331.06;;;22.13;34.54
67803;BME280;54601;51.378;-1.342;2023-08-08T02:22:47;100331.03;;;22.22;34.44
67803;BME280;54601;51.378;-1.342;2023-08-08T02:25:13;100332.59;;;22.11;34.67
67803;BME280;54601;51.378;-1.342;2023-08-08T02:27:38;100329.97;;;21.98;34.70
67803;BME280;54601;51.378;-1.342;2023-08-08T02:30:04;100333.73;;;22.06;34.60
67803;BME280;54601;51.378;-1.342;2023-08-08T02:32:29;100334.68;;;22.34;34.53
67803;BME280;54601;51.378;-1.342;2023-08-08T02:34:54;100330.33;;;22.33;34.73
67803;BME280;54601;51.378;-1.342;2023-08-08T02:37:19;100330.74;;;21.97;34.79
67803;BME280;54601;51.378;-1.342;2023-08-08T02:39:45;100327.07;;;21.88;34.77
67803;BME280;54601;51.378;-1.342;2023-08-08T02:42:10;100333.13;;;22.09;34.57
67803;BME280;54601;51.378;-1.342;2023-08-08T02:44:36;100331.68;;;21.90;34.88
67803;BME280;54601;51.378;-1.342;2023-08-08T02:47:01;100328.99;;;21.94;34.84
67803;BME280;54601;51.378;-1.342;2023-08-08T02:49:27;100328.32;;;22.18;34.82
67803;BME280;54601;51.378;-1.342;2023-08-08T02:51:53;100335.81;;;22.18;34.50
67803;BME280;54601;51.378;-1.342;2023-08-08T02:54:17;100332.14;;;22.22;34.69
67803;BME280;54601;51.378;-1.342;2023-08-08T02:56:43;100333.79;;;21.82;34.90
67803;BME280;54601;51.378;-1.342;2023-08-08T02:59:08;100336.54;;;21.93;34.79
67803;BME280;54601;51.378;-1.342;2023-08-08T03:01:34;100340.26;;;22.21;34.89
67803;BME280;54601;51.378;-1.342;2023-08-08T03:03:59;100340.42;;;22.12;34.73
67803;BME280;54601;51.378;-1.342;2023-08-08T03:06:25;100340.45;;;22.28;34.67
67803;BME280;54601;51.378;-1.342;2023-08-08T03:08:50;100338.19;;;21.89;34.64
67803;BME280;54601;51.378;-1.342;2023-08-08T03:11:15;100335.78;;;22.15;34.64
67803;BME280;54601;51.378;-1.342;2023-08-08T03:13:41;100335.43;;;21.81;34.82
67803;BME280;54601;51.378;-1.342;2023-08-08T03:16:06;100328.59;;;21.89;34.81
67803;BME280;54601;51.378;-1.342;2023-08-08T03:18:31;100326.89;;;21.89;34.81
67803;BME280;54601;51.378;-1.342;2023-08-08T03:20:57;100324.14;;;21.97;34.70
67803;BME280;54601;51.378;-1.342;2023-08-08T03:23:22;100321.17;;;22.29;34.60
67803;BME280;54601;51.378;-1.342;2023-08-08T03:25:48;100318.80;;;22.19;34.65
67803;BME280;54601;51.378;-1.342;2023-08-08T03:28:13;100319.52;;;22.42;34.80
67803;BME280;54601;51.378;-1.342;2023-08-08T03:30:39;100324.47;;;21.82;34.85
67803;BME280;54601;51.378;-1.342;2023-08-08T03:33:04;100338.66;;;22.01;35.05
67803;BME280;54601;51.378;-1.342;2023-08-08T03:35:29;100338.64;;;22.08;34.88
67803;BME280;54601;51.378;-1.342;2023-08-08T03:37:55;100322.79;;;22.11;34.84
67803;BME280;54601;51.378;-1.342;2023-08-08T03:40:20;100320.96;;;22.00;34.92
67803;BME280;54601;51.378;-1.342;2023-08-08T03:42:46;100328.61;;;21.93;34.60
67803;BME280;54601;51.378;-1.342;2023-08-08T03:45:11;100330.57;;;22.15;34.72
67803;BME280;54601;51.378;-1.342;2023-08-08T03:47:37;100332.88;;;21.76;34.98
67803;BME280;54601;51.378;-1.342;2023-08-08T03:50:02;100329.27;;;21.79;35.01
67803;BME280;54601;51.378;-1.342;2023-08-08T03:52:27;100324.75;;;21.58;35.11
67803;BME280;54601;51.378;-1.342;2023-08-08T03:54:53;100328.16;;;21.71;34.96
67803;BME280;54601;51.378;-1.342;2023-08-08T03:57:18;100325.92;;;22.10;35.13
67803;BME280;54601;51.378;-1.342;2023-08-08T03:59:44;100328.02;;;22.11;34.63
67803;BME280;54601;51.378;-1.342;2023-08-08T04:02:09;100327.12;;;21.80;35.08
67803;BME280;54601;51.378;-1.342;2023-08-08T04:04:34;100324.13;;;21.96;34.93
67803;BME280;54601;51.378;-1.342;2023-08-08T04:07:00;100331.94;;;22.22;34.97
67803;BME280;54601;51.378;-1.342;2023-08-08T04:09:25;100331.24;;;21.68;35.00
67803;BME280;54601;51.378;-1.342;2023-08-08T04:11:51;100328.94;;;22.25;34.87
67803;BME280;54601;51.378;-1.342;2023-08-08T04:14:16;100332.85;;;21.97;34.95
67803;BME280;54601;51.378;-1.342;2023-08-08T04:16:41;100327.93;;;22.10;34.78
67803;BME280;54601;51.378;-1.342;2023-08-08T04:19:07;100323.34;;;21.81;35.05
67803;BME280;54601;51.378;-1.342;2023-08-08T04:21:32;100319.56;;;21.87;35.00
67803;BME280;54601;51.378;-1.342;2023-08-08T04:23:58;100318.36;;;21.55;35.07
67803;BME280;54601;51.378;-1.342;2023-08-08T04:26:23;100316.21;;;22.06;35.11
67803;BME280;54601;51.378;-1.342;2023-08-08T04:28:49;100318.52;;;21.90;34.91
67803;BME280;54601;51.378;-1.342;2023-08-08T04:31:14;100314.97;;;21.77;35.14
67803;BME280;54601;51.378;-1.342;2023-08-08T04:33:39;100315.88;;;21.65;35.29
67803;BME280;54601;51.378;-1.342;2023-08-08T04:36:05;100314.48;;;21.99;35.03
67803;BME280;54601;51.378;-1.342;2023-08-08T04:38:30;100318.72;;;22.03;35.11
67803;BME280;54601;51.378;-1.342;2023-08-08T04:40:56;100318.32;;;21.73;35.17
67803;BME280;54601;51.378;-1.342;2023-08-08T04:43:21;100318.28;;;21.53;35.03
67803;BME280;54601;51.378;-1.342;2023-08-08T04:45:46;100315.97;;;21.98;35.11
67803;BME280;54601;51.378;-1.342;2023-08-08T04:48:12;100316.25;;;22.11;34.94
67803;BME280;54601;51.378;-1.342;2023-08-08T04:50:37;100317.01;;;21.71;35.30
67803;BME280;54601;51.378;-1.342;2023-08-08T04:53:03;100310.43;;;21.46;35.11
67803;BME280;54601;51.378;-1.342;2023-08-08T04:55:28;100307.93;;;21.72;35.11
67803;BME280;54601;51.378;-1.342;2023-08-08T04:57:54;100307.56;;;21.46;35.26
67803;BME280;54601;51.378;-1.342;2023-08-08T05:00:19;100310.49;;;21.57;35.00
67803;BME280;54601;51.378;-1.342;2023-08-08T05:02:44;100310.54;;;22.07;35.03
67803;BME280;54601;51.378;-1.342;2023-08-08T05:05:10;100319.55;;;22.06;34.96
67803;BME280;54601;51.378;-1.342;2023-08-08T05:07:35;100315.87;;;21.86;34.96
67803;BME280;54601;51.378;-1.342;2023-08-08T05:10:01;100318.64;;;21.78;35.00
67803;BME280;54601;51.378;-1.342;2023-08-08T05:12:26;100318.69;;;22.04;35.07
67803;BME280;54601;51.378;-1.342;2023-08-08T05:14:52;100316.21;;;21.67;35.31
67803;BME280;54601;51.378;-1.342;2023-08-08T05:17:17;100307.95;;;21.53;35.00
67803;BME280;54601;51.378;-1.342;2023-08-08T05:19:42;100304.51;;;21.41;35.24
67803;BME280;54601;51.378;-1.342;2023-08-08T05:22:08;100300.55;;;21.28;35.74
67803;BME280;54601;51.378;-1.342;2023-08-08T05:24:33;100295.69;;;21.89;35.27
67803;BME280;54601;51.378;-1.342;2023-08-08T05:26:59;100294.11;;;21.96;35.09
67803;BME280;54601;51.378;-1.342;2023-08-08T05:29:24;100290.74;;;21.84;35.28
67803;BME280;54601;51.378;-1.342;2023-08-08T05:31:49;100291.54;;;21.68;35.16
67803;BME280;54601;51.378;-1.342;2023-08-08T05:34:15;100291.13;;;21.42;35.26
67803;BME280;54601;51.378;-1.342;2023-08-08T05:36:40;100288.29;;;21.77;35.01
67803;BME280;54601;51.378;-1.342;2023-08-08T05:39:06;100284.86;;;22.02;35.01
67803;BME280;54601;51.378;-1.342;2023-08-08T05:41:31;100284.28;;;21.77;34.97
67803;BME280;54601;51.378;-1.342;2023-08-08T05:43:57;100287.70;;;22.00;34.99
67803;BME280;54601;51.378;-1.342;2023-08-08T05:46:22;100292.15;;;21.60;35.23
67803;BME280;54601;51.378;-1.342;2023-08-08T05:48:47;100290.50;;;21.75;35.08
67803;BME280;54601;51.378;-1.342;2023-08-08T05:51:13;100285.18;;;21.72;34.74
67803;BME280;54601;51.378;-1.342;2023-08-08T05:53:38;100287.31;;;22.02;34.71
67803;BME280;54601;51.378;-1.342;2023-08-08T05:56:04;100288.93;;;22.11;34.71
67803;BME280;54601;51.378;-1.342;2023-08-08T05:58:29;100289.97;;;22.20;34.63
67803;BME280;54601;51.378;-1.342;2023-08-08T06:00:55;100294.76;;;22.41;34.66
67803;BME280;54601;51.378;-1.342;2023-08-08T06:03:20;100297.55;;;22.21;34.65
67803;BME280;54601;51.378;-1.342;2023-08-08T06:05:45;100296.07;;;22.45;34.62
67803;BME280;54601;51.378;-1.342;2023-08-08T06:08:11;100295.20;;;22.26;34.62
67803;BME280;54601;51.378;-1.342;2023-08-08T06:10:36;100297.61;;;22.33;34.56
67803;BME280;54601;51.378;-1.342;2023-08-08T06:13:01;100300.87;;;22.18;34.45
67803;BME280;54601;51.378;-1.342;2023-08-08T06:15:27;100297.16;;;22.37;34.51
67803;BME280;54601;51.378;-1.342;2023-08-08T06:17:53;100295.81;;;22.40;34.49
67803;BME280;54601;51.378;-1.342;2023-08-08T06:20:18;100294.43;;;22.27;34.62
67803;BME280;54601;51.378;-1.342;2023-08-08T06:22:43;100294.57;;;22.05;34.58
67803;BME280;54601;51.378;-1.342;2023-08-08T06:25:09;100297.74;;;22.49;34.40
67803;BME280;54601;51.378;-1.342;2023-08-08T06:27:34;100293.11;;;22.20;34.44
67803;BME280;54601;51.378;-1.342;2023-08-08T06:29:59;100291.69;;;22.31;34.63
67803;BME280;54601;51.378;-1.342;2023-08-08T06:32:25;100294.53;;;22.23;34.45
67803;BME280;54601;51.378;-1.342;2023-08-08T06:34:50;100292.56;;;22.61;34.62
67803;BME280;54601;51.378;-1.342;2023-08-08T06:37:16;100290.64;;;22.22;34.48
67803;BME280;54601;51.378;-1.342;2023-08-08T06:39:41;100291.19;;;22.64;34.58
67803;BME280;54601;51.378;-1.342;2023-08-08T06:42:07;100290.04;;;22.39;34.64
67803;BME280;54601;51.378;-1.342;2023-08-08T06:44:33;100287.80;;;22.43;34.59
67803;BME280;54601;51.378;-1.342;2023-08-08T06:46:57;100282.79;;;22.32;34.40
67803;BME280;54601;51.378;-1.342;2023-08-08T06:49:23;100286.39;;;22.17;34.57
67803;BME280;54601;51.378;-1.342;2023-08-08T06:51:48;100282.03;;;22.43;34.57
67803;BME280;54601;51.378;-1.342;2023-08-08T06:54:14;100280.47;;;22.41;34.62
67803;BME280;54601;51.378;-1.342;2023-08-08T06:56:39;100278.23;;;22.10;34.63
67803;BME280;54601;51.378;-1.342;2023-08-08T06:59:05;100279.21;;;22.58;34.60
67803;BME280;54601;51.378;-1.342;2023-08-08T07:01:30;100278.25;;;22.50;34.47
67803;BME280;54601;51.378;-1.342;2023-08-08T07:03:55;100279.97;;;22.57;34.65
67803;BME280;54601;51.378;-1.342;2023-08-08T07:06:21;100280.45;;;22.29;34.45
67803;BME280;54601;51.378;-1.342;2023-08-08T07:08:46;100281.70;;;23.07;34.07
67803;BME280;54601;51.378;-1.342;2023-08-08T07:11:12;100280.78;;;21.55;35.35
67803;BME280;54601;51.378;-1.342;2023-08-08T07:13:37;100282.70;;;21.74;35.79
67803;BME280;54601;51.378;-1.342;2023-08-08T07:16:03;100283.79;;;21.41;36.27
67803;BME280;54601;51.378;-1.342;2023-08-08T07:18:28;100284.53;;;21.20;36.56
67803;BME280;54601;51.378;-1.342;2023-08-08T07:20:53;100287.09;;;20.73;36.55
67803;BME280;54601;51.378;-1.342;2023-08-08T07:23:19;100287.02;;;21.13;35.99
67803;BME280;54601;51.378;-1.342;2023-08-08T07:25:45;100284.48;;;21.38;36.28
67803;BME280;54601;51.378;-1.342;2023-08-08T07:28:10;100282.14;;;21.00;36.81
67803;BME280;54601;51.378;-1.342;2023-08-08T07:30:35;100276.81;;;21.07;36.38
67803;BME280;54601;51.378;-1.342;2023-08-08T07:33:00;100274.66;;;20.95;36.87
67803;BME280;54601;51.378;-1.342;2023-08-08T07:35:26;100277.54;;;21.32;36.33
67803;BME280;54601;51.378;-1.342;2023-08-08T07:37:51;100278.00;;;20.86;36.67
67803;BME280;54601;51.378;-1.342;2023-08-08T07:40:18;100277.15;;;21.17;36.60
67803;BME280;54601;51.378;-1.342;2023-08-08T07:42:42;100274.40;;;21.19;36.54
67803;BME280;54601;51.378;-1.342;2023-08-08T07:45:08;100271.00;;;21.37;36.25
67803;BME280;54601;51.378;-1.342;2023-08-08T07:47:33;100262.62;;;21.11;36.61
67803;BME280;54601;51.378;-1.342;2023-08-08T07:49:58;100265.99;;;20.95;36.51
67803;BME280;54601;51.378;-1.342;2023-08-08T07:52:24;100261.98;;;21.11;36.59
67803;BME280;54601;51.378;-1.342;2023-08-08T07:54:49;100255.32;;;21.28;36.05
67803;BME280;54601;51.378;-1.342;2023-08-08T07:57:14;100265.33;;;20.88;36.52
67803;BME280;54601;51.378;-1.342;2023-08-08T07:59:40;100263.36;;;20.97;36.80
67803;BME280;54601;51.378;-1.342;2023-08-08T08:02:05;100261.25;;;21.49;36.01
67803;BME280;54601;51.378;-1.342;2023-08-08T08:04:31;100264.14;;;21.12;36.25
67803;BME280;54601;51.378;-1.342;2023-08-08T08:06:56;100260.67;;;20.58;36.57
67803;BME280;54601;51.378;-1.342;2023-08-08T08:09:21;100259.39;;;21.26;36.32
67803;BME280;54601;51.378;-1.342;2023-08-08T08:11:47;100256.85;;;20.85;36.58
67803;BME280;54601;51.378;-1.342;2023-08-08T08:14:12;100254.30;;;20.78;36.71
67803;BME280;54601;51.378;-1.342;2023-08-08T08:16:38;100251.09;;;21.12;36.55
67803;BME280;54601;51.378;-1.342;2023-08-08T08:19:03;100247.37;;;21.33;36.24
67803;BME280;54601;51.378;-1.342;2023-08-08T08:21:29;100249.48;;;20.98;36.44
67803;BME280;54601;51.378;-1.342;2023-08-08T08:23:54;100251.63;;;21.15;36.47
67803;BME280;54601;51.378;-1.342;2023-08-08T08:26:20;100251.26;;;21.11;36.21
67803;BME280;54601;51.378;-1.342;2023-08-08T08:28:45;100249.69;;;21.10;36.23
67803;BME280;54601;51.378;-1.342;2023-08-08T08:31:10;100252.75;;;21.13;36.20
67803;BME280;54601;51.378;-1.342;2023-08-08T08:33:36;100250.35;;;21.40;36.14
67803;BME280;54601;51.378;-1.342;2023-08-08T08:36:01;100249.28;;;21.14;36.23
67803;BME280;54601;51.378;-1.342;2023-08-08T08:38:26;100249.21;;;21.06;36.34
67803;BME280;54601;51.378;-1.342;2023-08-08T08:40:54;100248.43;;;21.41;36.05
67803;BME280;54601;51.378;-1.342;2023-08-08T08:43:17;100246.52;;;21.40;36.17
67803;BME280;54601;51.378;-1.342;2023-08-08T08:45:43;100247.55;;;21.67;35.78
67803;BME280;54601;51.378;-1.342;2023-08-08T08:48:09;100249.24;;;21.08;36.24
67803;BME280;54601;51.378;-1.342;2023-08-08T08:50:34;100250.52;;;21.30;35.90
67803;BME280;54601;51.378;-1.342;2023-08-08T08:53:00;100250.89;;;20.78;36.33
67803;BME280;54601;51.378;-1.342;2023-08-08T08:55:24;100243.07;;;21.61;35.88
67803;BME280;54601;51.378;-1.342;2023-08-08T08:57:50;100234.62;;;21.50;35.99
67803;BME280;54601;51.378;-1.342;2023-08-08T09:00:16;100226.82;;;21.43;36.05
67803;BME280;54601;51.378;-1.342;2023-08-08T09:02:41;100232.47;;;21.54;35.90
67803;BME280;54601;51.378;-1.342;2023-08-08T09:05:07;100239.09;;;21.51;35.64
67803;BME280;54601;51.378;-1.342;2023-08-08T09:07:33;100238.50;;;21.70;35.70
67803;BME280;54601;51.378;-1.342;2023-08-08T09:09:57;100236.15;;;21.63;35.47
67803;BME280;54601;51.378;-1.342;2023-08-08T09:12:22;100228.89;;;21.54;35.60
67803;BME280;54601;51.378;-1.342;2023-08-08T09:14:48;100226.97;;;21.94;35.29
67803;BME280;54601;51.378;-1.342;2023-08-08T09:17:14;100232.04;;;21.31;35.55
67803;BME280;54601;51.378;-1.342;2023-08-08T09:19:42;100233.60;;;22.07;35.15
67803;BME280;54601;51.378;-1.342;2023-08-08T09:22:04;100229.36;;;21.93;35.31
67803;BME280;54601;51.378;-1.342;2023-08-08T09:24:29;100228.39;;;22.11;35.07
67803;BME280;54601;51.378;-1.342;2023-08-08T09:26:55;100227.99;;;21.96;35.30
67803;BME280;54601;51.378;-1.342;2023-08-08T09:29:20;100224.04;;;22.06;35.21
67803;BME280;54601;51.378;-1.342;2023-08-08T09:31:46;100218.63;;;22.09;35.13
67803;BME280;54601;51.378;-1.342;2023-08-08T09:34:11;100213.72;;;21.97;35.29
67803;BME280;54601;51.378;-1.342;2023-08-08T09:36:36;100210.38;;;21.94;35.08
67803;BME280;54601;51.378;-1.342;2023-08-08T09:39:03;100201.35;;;21.53;35.17
67803;BME280;54601;51.378;-1.342;2023-08-08T09:41:28;100200.11;;;22.06;35.11
67803;BME280;54601;51.378;-1.342;2023-08-08T09:43:53;100203.44;;;22.29;34.85
67803;BME280;54601;51.378;-1.342;2023-08-08T09:46:19;100195.11;;;22.18;35.03
67803;BME280;54601;51.378;-1.342;2023-08-08T09:48:44;100197.57;;;22.17;34.78
67803;BME280;54601;51.378;-1.342;2023-08-08T09:51:09;100196.34;;;22.17;34.77
67803;BME280;54601;51.378;-1.342;2023-08-08T09:53:35;100195.65;;;22.19;34.74
67803;BME280;54601;51.378;-1.342;2023-08-08T09:56:02;100197.23;;;22.17;35.04
67803;BME280;54601;51.378;-1.342;2023-08-08T09:58:25;100190.58;;;22.16;35.08
67803;BME280;54601;51.378;-1.342;2023-08-08T10:00:51;100187.93;;;22.18;35.06
67803;BME280;54601;51.378;-1.342;2023-08-08T10:03:17;100185.35;;;22.21;35.04
67803;BME280;54601;51.378;-1.342;2023-08-08T10:05:42;100185.15;;;22.20;35.05
67803;BME280;54601;51.378;-1.342;2023-08-08T10:08:07;100183.67;;;22.05;34.96
67803;BME280;54601;51.378;-1.342;2023-08-08T10:10:33;100180.43;;;22.48;34.72
67803;BME280;54601;51.378;-1.342;2023-08-08T10:12:59;100178.14;;;22.02;35.01
67803;BME280;54601;51.378;-1.342;2023-08-08T10:15:25;100181.47;;;22.22;34.77
67803;BME280;54601;51.378;-1.342;2023-08-08T10:17:53;100181.14;;;22.34;34.87
67803;BME280;54601;51.378;-1.342;2023-08-08T10:20:14;100175.67;;;22.45;34.77
67803;BME280;54601;51.378;-1.342;2023-08-08T10:22:43;100172.89;;;22.35;34.92
67803;BME280;54601;51.378;-1.342;2023-08-08T10:25:06;100167.84;;;22.17;34.89
67803;BME280;54601;51.378;-1.342;2023-08-08T10:27:32;100163.77;;;22.05;35.06
67803;BME280;54601;51.378;-1.342;2023-08-08T10:30:02;100166.03;;;22.20;34.86
67803;BME280;54601;51.378;-1.342;2023-08-08T10:32:24;100164.45;;;21.99;34.77
67803;BME280;54601;51.378;-1.342;2023-08-08T10:34:47;100162.85;;;22.27;34.73
67803;BME280;54601;51.378;-1.342;2023-08-08T10:37:13;100163.15;;;22.26;34.43
67803;BME280;54601;51.378;-1.342;2023-08-08T10:42:04;100163.98;;;22.28;34.78
67803;BME280;54601;51.378;-1.342;2023-08-08T10:44:29;100159.30;;;22.36;34.72
67803;BME280;54601;51.378;-1.342;2023-08-08T10:46:56;100156.26;;;22.63;34.43
67803;BME280;54601;51.378;-1.342;2023-08-08T10:49:20;100153.59;;;22.77;34.53
67803;BME280;54601;51.378;-1.342;2023-08-08T10:51:49;100153.84;;;22.82;34.49
67803;BME280;54601;51.378;-1.342;2023-08-08T10:54:13;100151.13;;;22.14;34.68
67803;BME280;54601;51.378;-1.342;2023-08-08T10:56:36;100150.37;;;22.47;34.62
67803;BME280;54601;51.378;-1.342;2023-08-08T11:01:27;100143.14;;;22.60;34.54
67803;BME280;54601;51.378;-1.342;2023-08-08T11:03:53;100145.69;;;22.87;34.49
67803;BME280;54601;51.378;-1.342;2023-08-08T11:06:18;100147.21;;;22.88;34.60
67803;BME280;54601;51.378;-1.342;2023-08-08T11:08:43;100152.70;;;22.60;34.57
67803;BME280;54601;51.378;-1.342;2023-08-08T11:11:08;100156.25;;;22.39;34.54
67803;BME280;54601;51.378;-1.342;2023-08-08T11:13:34;100150.71;;;22.83;34.65
67803;BME280;54601;51.378;-1.342;2023-08-08T11:15:59;100145.01;;;22.70;34.83
67803;BME280;54601;51.378;-1.342;2023-08-08T11:18:25;100139.29;;;22.65;34.65
67803;BME280;54601;51.378;-1.342;2023-08-08T11:20:50;100137.33;;;22.78;34.71
67803;BME280;54601;51.378;-1.342;2023-08-08T11:23:16;100140.34;;;22.63;34.65
67803;BME280;54601;51.378;-1.342;2023-08-08T11:25:43;100141.71;;;22.66;34.68
67803;BME280;54601;51.378;-1.342;2023-08-08T11:28:06;100145.24;;;22.88;34.68
67803;BME280;54601;51.378;-1.342;2023-08-08T11:30:34;100149.82;;;22.65;34.64
67803;BME280;54601;51.378;-1.342;2023-08-08T11:32:57;100150.34;;;22.54;34.84
67803;BME280;54601;51.378;-1.342;2023-08-08T11:35:24;100150.16;;;22.86;34.69
67803;BME280;54601;51.378;-1.342;2023-08-08T11:37:48;100152.54;;;22.56;34.85
67803;BME280;54601;51.378;-1.342;2023-08-08T11:40:14;100152.10;;;22.55;34.81
67803;BME280;54601;51.378;-1.342;2023-08-08T11:42:39;100148.68;;;22.63;35.00
67803;BME280;54601;51.378;-1.342;2023-08-08T11:45:05;100147.44;;;22.44;34.96
67803;BME280;54601;51.378;-1.342;2023-08-08T11:47:30;100143.71;;;22.70;34.91
67803;BME280;54601;51.378;-1.342;2023-08-08T11:49:56;100139.53;;;22.52;34.85
67803;BME280;54601;51.378;-1.342;2023-08-08T11:52:21;100131.77;;;22.10;35.02
67803;BME280;54601;51.378;-1.342;2023-08-08T11:54:51;100131.50;;;22.41;35.03
67803;BME280;54601;51.378;-1.342;2023-08-08T11:57:11;100133.19;;;22.57;35.08
67803;BME280;54601;51.378;-1.342;2023-08-08T11:59:37;100130.09;;;22.65;35.05
67803;BME280;54601;51.378;-1.342;2023-08-08T12:02:02;100128.64;;;22.43;34.98
67803;BME280;54601;51.378;-1.342;2023-08-08T12:04:28;100120.88;;;22.50;35.13
67803;BME280;54601;51.378;-1.342;2023-08-08T12:07:02;100120.01;;;22.63;35.09
67803;BME280;54601;51.378;-1.342;2023-08-08T12:09:18;100107.98;;;22.12;35.05
67803;BME280;54601;51.378;-1.342;2023-08-08T12:11:46;100105.80;;;22.30;34.88
67803;BME280;54601;51.378;-1.342;2023-08-08T12:14:09;100104.79;;;22.86;34.83
67803;BME280;54601;51.378;-1.342;2023-08-08T12:16:37;100108.61;;;22.83;34.85
67803;BME280;54601;51.378;-1.342;2023-08-08T12:19:02;100107.70;;;22.84;34.93
67803;BME280;54601;51.378;-1.342;2023-08-08T12:21:26;100108.70;;;22.83;34.94
67803;BME280;54601;51.378;-1.342;2023-08-08T12:23:51;100115.38;;;22.61;34.99
67803;BME280;54601;51.378;-1.342;2023-08-08T12:26:17;100114.78;;;22.68;35.11
67803;BME280;54601;51.378;-1.342;2023-08-08T12:28:42;100106.81;;;22.79;35.03
67803;BME280;54601;51.378;-1.342;2023-08-08T12:31:07;100107.49;;;22.75;35.09
67803;BME280;54601;51.378;-1.342;2023-08-08T12:33:33;100106.06;;;22.94;34.90
67803;BME280;54601;51.378;-1.342;2023-08-08T12:35:58;100100.35;;;22.96;34.89